Time;durP1;ratioP1;P1;durP2;ratioP2;P2;SDS_P1;SDS_P2;PMS_P1;PMS_P2;Temp;Humidity;BMP_temperature;BMP_pressure;BME280_temperature;BME280_humidity;BME280_pressure;Samples;Min_cycle;Max_cycle;Signal;HPM_P1;HPM_P2
2023/04/21 00:02:06;;;;;;;34.40;16.08;;;;;;;18.00;68.79;95926.34;4973840;28;20078;-57
2023/04/21 00:04:36;;;;;;;32.60;16.90;;;;;;;18.71;66.96;95914.16;4968926;28;20086;-55
2023/04/21 00:07:05;;;;;;;25.17;14.45;;;;;;;18.70;63.19;95923.22;4969594;28;20082;-55
2023/04/21 00:09:33;;;;;;;27.30;15.15;;;;;;;18.59;63.26;95923.84;4968943;28;20097;-60
2023/04/21 00:12:02;;;;;;;29.67;15.63;;;;;;;18.90;61.11;95920.53;4969052;28;20086;-58
2023/04/21 00:14:30;;;;;;;25.15;13.90;;;;;;;18.90;61.10;95921.34;4968780;28;20474;-57
2023/04/21 00:16:59;;;;;;;28.08;13.98;;;;;;;19.09;58.97;95924.97;4971152;28;20105;-60
2023/04/21 00:19:27;;;;;;;26.73;14.10;;;;;;;19.10;58.73;95917.81;4972684;28;20086;-58
2023/04/21 00:21:59;;;;;;;21.75;12.77;;;;;;;19.20;61.85;95910.97;4972833;28;20067;-57
2023/04/21 00:24:28;;;;;;;27.23;14.93;;;;;;;18.68;61.31;95907.38;4972457;28;20082;-57
2023/04/21 00:26:56;;;;;;;26.13;14.30;;;;;;;19.01;59.57;95903.84;4972914;28;20075;-56
2023/04/21 00:29:24;;;;;;;30.67;14.98;;;;;;;19.13;58.48;95907.50;4972653;28;20573;-61
2023/04/21 00:31:53;;;;;;;25.42;13.80;;;;;;;19.28;57.37;95898.41;4970433;28;20089;-60
2023/04/21 00:34:21;;;;;;;31.10;14.25;;;;;;;18.92;58.85;95899.75;4971401;28;20082;-58
2023/04/21 00:36:49;;;;;;;23.23;13.60;;;;;;;19.15;58.07;95901.94;4972391;28;20097;-60
2023/04/21 00:39:19;;;;;;;23.25;14.05;;;;;;;19.14;61.02;95898.44;4972743;28;20086;-57
2023/04/21 00:41:47;;;;;;;27.65;14.07;;;;;;;19.23;57.57;95901.69;4970258;28;20101;-57
2023/04/21 00:44:16;;;;;;;26.58;15.00;;;;;;;19.04;57.92;95900.75;4971868;28;20082;-57
2023/04/21 00:46:44;;;;;;;30.35;15.32;;;;;;;19.16;57.35;95904.38;4971736;28;20112;-57
2023/04/21 00:49:13;;;;;;;26.73;14.02;;;;;;;19.28;57.77;95903.75;4952148;28;20608;-59
2023/04/21 00:51:42;;;;;;;30.40;15.45;;;;;;;18.61;59.58;95908.44;4970811;28;20490;-56
2023/04/21 00:54:12;;;;;;;29.23;14.75;;;;;;;19.18;61.23;95909.53;4972175;28;20074;-60
2023/04/21 00:56:41;;;;;;;28.83;14.82;;;;;;;19.10;61.01;95904.44;4972239;28;20082;-58
2023/04/21 00:59:10;;;;;;;29.40;15.43;;;;;;;18.47;64.36;95900.44;4972014;28;20078;-55
2023/04/21 01:01:38;;;;;;;27.48;14.43;;;;;;;18.85;60.88;95896.28;4971710;28;20090;-55
2023/04/21 01:04:09;;;;;;;25.30;14.57;;;;;;;19.32;58.88;95896.94;4972193;28;20079;-59
2023/04/21 01:06:37;;;;;;;26.80;14.23;;;;;;;19.58;58.03;95888.78;4966939;28;20144;-55
2023/04/21 01:09:06;;;;;;;24.45;13.93;;;;;;;19.79;56.54;95884.97;4967912;28;20423;-62
2023/04/21 01:11:34;;;;;;;25.42;14.23;;;;;;;20.05;54.88;95888.47;4968805;28;20093;-62
2023/04/21 01:14:04;;;;;;;29.00;15.38;;;;;;;20.09;55.08;95884.31;4972109;28;20089;-58
2023/04/21 01:16:33;;;;;;;27.63;14.80;;;;;;;19.52;57.79;95881.59;4971864;28;20524;-59
2023/04/21 01:19:03;;;;;;;29.00;15.73;;;;;;;19.70;56.23;95883.56;4967696;28;20082;-56
2023/04/21 01:21:39;;;;;;;;;;;;;;;20.03;55.26;95874.50;4971368;28;20082;-59
2023/04/21 01:24:07;;;;;;;26.25;14.77;;;;;;;19.53;58.11;95861.84;4970704;28;19949;-58
2023/04/21 01:26:36;;;;;;;31.30;14.80;;;;;;;19.92;55.05;95862.63;4974477;28;20085;-58
2023/04/21 01:29:04;;;;;;;27.33;14.80;;;;;;;20.00;54.52;95866.91;4970938;28;20085;-61
2023/04/21 01:31:32;;;;;;;29.35;15.32;;;;;;;20.09;53.73;95862.91;4970939;28;20102;-52
2023/04/21 01:34:03;;;;;;;27.35;14.45;;;;;;;20.24;54.50;95860.72;4969673;28;20476;-61
2023/04/21 01:36:32;;;;;;;27.50;15.20;;;;;;;19.87;55.29;95871.31;4969347;28;20091;-57
2023/04/21 01:39:01;;;;;;;27.50;15.50;;;;;;;19.91;55.02;95867.16;4970602;28;20078;-59
2023/04/21 01:41:30;;;;;;;24.52;14.07;;;;;;;19.18;58.64;95880.94;4970305;28;20097;-59
2023/04/21 01:43:58;;;;;;;26.55;14.80;;;;;;;19.52;56.75;95886.97;4971079;28;20086;-57
2023/04/21 01:46:26;;;;;;;27.05;14.55;;;;;;;19.73;56.05;95885.81;4971260;28;20089;-56
2023/04/21 01:48:55;;;;;;;28.73;14.55;;;;;;;19.44;58.38;95896.06;4970570;28;20086;-58
2023/04/21 01:51:23;;;;;;;26.90;14.48;;;;;;;19.73;56.60;95888.50;4971223;28;20589;-59
2023/04/21 01:53:52;;;;;;;25.45;14.13;;;;;;;19.89;55.69;95882.63;4970780;28;20093;-61
2023/04/21 01:56:21;;;;;;;27.77;16.08;;;;;;;20.03;55.83;95890.56;4971059;28;20085;-57
2023/04/21 01:58:52;;;;;;;26.90;14.93;;;;;;;19.28;59.28;95898.41;4969461;28;20089;-61
2023/04/21 02:01:20;;;;;;;31.35;16.52;;;;;;;19.38;58.66;95896.09;4969625;28;20468;-55
2023/04/21 02:03:48;;;;;;;27.52;14.75;;;;;;;19.63;57.36;95880.94;4970422;28;20122;-58
2023/04/21 02:06:17;;;;;;;28.73;15.98;;;;;;;19.49;56.57;95897.25;4970895;28;20096;-56
2023/04/21 02:08:45;;;;;;;25.50;14.82;;;;;;;19.78;55.61;95899.34;4970445;28;20085;-59
2023/04/21 02:11:13;;;;;;;26.92;15.25;;;;;;;19.18;58.17;95896.16;4971044;28;20090;-59
2023/04/21 02:13:43;;;;;;;28.45;14.60;;;;;;;19.28;60.77;95895.72;4972336;28;20133;-55
2023/04/21 02:16:11;;;;;;;27.52;14.93;;;;;;;19.41;58.20;95895.66;4970107;28;20074;-53
2023/04/21 02:18:43;;;;;;;25.83;14.40;;;;;;;19.15;60.82;95892.06;4970077;28;20086;-54
2023/04/21 02:21:11;;;;;;;27.80;14.57;;;;;;;19.34;59.16;95892.16;4970018;28;20082;-53
2023/04/21 02:23:40;;;;;;;25.05;13.50;;;;;;;19.39;58.50;95881.69;4970308;28;20074;-57
2023/04/21 02:26:09;;;;;;;26.75;14.07;;;;;;;19.57;57.68;95884.44;4969038;28;20083;-58
2023/04/21 02:28:37;;;;;;;26.27;14.25;;;;;;;19.36;58.43;95892.78;4970136;28;20089;-58
2023/04/21 02:31:07;;;;;;;28.10;14.27;;;;;;;19.70;57.07;95878.22;4969389;28;20094;-54
2023/04/21 02:33:35;;;;;;;26.00;14.55;;;;;;;19.46;56.75;95879.78;4969417;28;20089;-56
2023/04/21 02:36:05;;;;;;;25.20;14.38;;;;;;;19.58;56.80;95877.22;4969323;28;20086;-55
2023/04/21 02:38:33;;;;;;;24.30;14.30;;;;;;;19.54;56.59;95868.81;4970198;28;20085;-54
2023/04/21 02:41:02;;;;;;;27.42;14.52;;;;;;;19.32;58.38;95879.03;4970229;28;20460;-56
2023/04/21 02:43:30;;;;;;;26.02;13.52;;;;;;;19.21;59.55;95875.19;4965471;28;20082;-54
2023/04/21 02:45:58;;;;;;;28.35;15.93;;;;;;;19.47;57.73;95862.69;4969220;28;20090;-57
2023/04/21 02:48:28;;;;;;;27.05;13.88;;;;;;;19.70;57.57;95854.16;4964801;28;20078;-59
2023/04/21 02:50:56;;;;;;;29.55;15.05;;;;;;;19.54;57.00;95850.09;4968368;28;20085;-56
2023/04/21 02:53:24;;;;;;;29.55;15.60;;;;;;;19.62;56.30;95854.38;4970205;28;20082;-55
2023/04/21 02:55:53;;;;;;;27.63;15.18;;;;;;;19.63;56.29;95850.69;4969845;28;20082;-52
2023/04/21 02:58:21;;;;;;;28.60;14.82;;;;;;;19.54;56.69;95860.78;4970687;28;20487;-58
2023/04/21 03:00:50;;;;;;;28.83;15.13;;;;;;;19.62;56.11;95857.88;4970022;28;20464;-54
2023/04/21 03:03:18;;;;;;;29.45;16.02;;;;;;;19.56;56.01;95865.94;4970769;28;20539;-61
2023/04/21 03:05:48;;;;;;;27.48;15.00;;;;;;;19.76;55.87;95861.31;4969263;28;20448;-57
2023/04/21 03:08:17;;;;;;;25.73;14.52;;;;;;;19.58;55.70;95858.50;4970252;28;20090;-56
2023/04/21 03:10:45;;;;;;;27.73;14.25;;;;;;;19.32;56.91;95857.66;4969263;28;20078;-59
2023/04/21 03:13:13;;;;;;;29.20;15.05;;;;;;;19.24;56.67;95855.22;4969977;28;20093;-58
2023/04/21 03:15:41;;;;;;;31.65;15.40;;;;;;;19.45;56.42;95854.09;4970186;28;20102;-58
2023/04/21 03:18:10;;;;;;;26.58;14.77;;;;;;;19.43;56.42;95856.97;4964920;28;20085;-58
2023/04/21 03:20:38;;;;;;;27.25;15.00;;;;;;;19.04;58.16;95852.66;4963318;28;20102;-56
2023/04/21 03:23:08;;;;;;;32.55;16.23;;;;;;;19.48;57.95;95850.97;4967026;28;20655;-57
2023/04/21 03:25:38;;;;;;;29.80;15.30;;;;;;;18.84;61.86;95858.06;4967186;28;20086;-58
2023/04/21 03:28:06;;;;;;;30.93;15.40;;;;;;;18.60;64.81;95864.06;4973286;28;20082;-56
2023/04/21 03:30:34;;;;;;;32.33;15.90;;;;;;;18.29;66.23;95857.56;4968604;28;20082;-55
2023/04/21 03:33:03;;;;;;;30.02;15.52;;;;;;;18.59;63.42;95870.44;4965708;28;20079;-57
2023/04/21 03:35:33;;;;;;;29.42;15.43;;;;;;;18.72;63.86;95863.25;4969955;28;20093;-59
2023/04/21 03:38:01;;;;;;;32.67;17.10;;;;;;;18.37;66.19;95873.34;4969472;28;20093;-58
2023/04/21 03:40:32;;;;;;;29.08;15.82;;;;;;;17.96;72.57;95882.44;4968550;28;20086;-56
2023/04/21 03:43:01;;;;;;;27.73;14.95;;;;;;;17.31;75.93;95881.28;4969004;28;20097;-57
2023/04/21 03:45:29;;;;;;;29.48;15.23;;;;;;;18.40;68.97;95872.94;4969525;28;20093;-59
2023/04/21 03:48:02;;;;;;;29.77;15.60;;;;;;;18.53;68.62;95872.09;4972564;28;20059;-59
2023/04/21 03:50:33;;;;;;;38.42;16.77;;;;;;;18.08;70.00;95877.28;4977970;28;20055;-57
2023/04/21 03:53:04;;;;;;;31.73;16.05;;;;;;;17.93;72.71;95874.00;4982731;28;20058;-58
2023/04/21 03:55:36;;;;;;;33.33;16.02;;;;;;;18.16;73.26;95877.06;4978652;28;20051;-58
2023/04/21 03:58:04;;;;;;;29.48;16.63;;;;;;;18.65;65.12;95869.59;4968793;28;20113;-58
2023/04/21 04:00:32;;;;;;;33.78;17.02;;;;;;;18.08;68.62;95871.13;4974983;28;20079;-51
2023/04/21 04:03:00;;;;;;;34.15;17.33;;;;;;;17.97;71.05;95869.91;4974984;28;20082;-58
2023/04/21 04:05:29;;;;;;;29.13;16.80;;;;;;;18.09;70.91;95864.75;4976085;28;20097;-54
2023/04/21 04:07:57;;;;;;;33.47;17.85;;;;;;;18.35;69.07;95869.25;4975157;28;20093;-56
2023/04/21 04:10:26;;;;;;;36.58;17.83;;;;;;;17.97;69.78;95868.06;4975548;28;20070;-52
2023/04/21 04:12:55;;;;;;;32.15;17.13;;;;;;;18.40;68.65;95875.59;4974500;28;20089;-58
2023/04/21 04:15:24;;;;;;;33.65;18.65;;;;;;;18.24;69.23;95874.19;4975940;28;20085;-57
2023/04/21 04:17:52;;;;;;;31.77;17.75;;;;;;;18.65;65.32;95867.75;4980833;28;20553;-57
2023/04/21 04:20:20;;;;;;;36.20;17.95;;;;;;;18.27;66.42;95871.13;4968379;28;20081;-53
2023/04/21 04:22:48;;;;;;;36.17;17.67;;;;;;;17.81;72.08;95871.13;4974477;28;20113;-57
2023/04/21 04:25:17;;;;;;;33.55;17.65;;;;;;;18.73;63.96;95864.06;4966558;28;20089;-54
2023/04/21 04:27:48;;;;;;;36.20;18.33;;;;;;;18.21;65.72;95874.59;4971893;28;20089;-56
2023/04/21 04:30:17;;;;;;;35.45;18.00;;;;;;;19.12;63.09;95870.28;4968461;28;20117;-58
2023/04/21 04:32:46;;;;;;;31.50;16.02;;;;;;;18.92;61.10;95859.66;4975254;28;20571;-61
2023/04/21 04:35:15;;;;;;;33.08;18.20;;;;;;;19.06;59.87;95869.28;4977764;28;20093;-57
2023/04/21 04:37:44;;;;;;;32.75;17.92;;;;;;;19.21;58.79;95877.84;4975655;28;20570;-54
2023/04/21 04:40:14;;;;;;;29.80;16.55;;;;;;;18.63;60.68;95887.69;4974547;28;20086;-54
2023/04/21 04:42:44;;;;;;;28.65;15.65;;;;;;;18.59;64.55;95889.97;4976427;28;20082;-60
2023/04/21 04:45:12;;;;;;;32.03;16.73;;;;;;;18.81;62.89;95893.22;4977894;28;20078;-54
2023/04/21 04:47:42;;;;;;;30.33;16.00;;;;;;;18.71;65.43;95903.47;4975617;28;20082;-58
2023/04/21 04:50:10;;;;;;;29.53;16.07;;;;;;;17.84;71.64;95900.06;4976445;28;20081;-58
2023/04/21 04:52:39;;;;;;;27.65;15.73;;;;;;;18.77;65.32;95899.19;4976965;28;20097;-58
2023/04/21 04:55:08;;;;;;;32.75;17.65;;;;;;;19.18;62.04;95891.66;4977318;28;20093;-59
2023/04/21 04:57:36;;;;;;;33.15;17.45;;;;;;;19.16;60.53;95884.84;4975126;28;20105;-58
2023/04/21 05:00:07;;;;;;;30.77;16.75;;;;;;;19.48;59.01;95879.56;4973889;28;20249;-57
2023/04/21 05:02:35;;;;;;;;;;;;;;;20.05;56.11;95883.13;4972805;28;20488;-57
2023/04/21 05:05:06;;;;;;;34.70;18.17;;;;;;;19.85;56.77;95880.59;4970595;28;19964;-58
2023/04/21 05:07:35;;;;;;;34.78;17.48;;;;;;;19.45;57.35;95878.16;4955370;28;20506;-59
2023/04/21 05:10:04;;;;;;;31.05;15.68;;;;;;;19.54;57.01;95879.50;4971659;28;20082;-60
2023/04/21 05:12:32;;;;;;;34.45;16.65;;;;;;;18.96;59.46;95888.44;4977155;28;20086;-54
2023/04/21 05:15:01;;;;;;;32.20;17.27;;;;;;;19.28;58.56;95893.06;4970868;28;20074;-56
2023/04/21 05:17:29;;;;;;;30.92;17.02;;;;;;;19.13;60.08;95888.81;4971886;28;20086;-54
2023/04/21 05:19:58;;;;;;;33.10;17.00;;;;;;;18.97;60.70;95898.09;4966394;28;20111;-59
2023/04/21 05:22:28;;;;;;;31.75;17.42;;;;;;;19.56;60.00;95898.03;4971002;28;20102;-55
2023/04/21 05:24:56;;;;;;;30.83;16.80;;;;;;;19.43;58.55;95905.09;4971598;28;20082;-55
2023/04/21 05:27:24;;;;;;;31.90;17.50;;;;;;;19.71;56.83;95895.09;4969886;28;20078;-54
2023/04/21 05:29:53;;;;;;;30.00;17.23;;;;;;;19.82;56.05;95905.09;4971048;28;20105;-55
2023/04/21 05:32:22;;;;;;;34.60;17.48;;;;;;;19.97;55.25;95910.97;4969708;28;20078;-55
2023/04/21 05:34:50;;;;;;;30.27;16.45;;;;;;;19.92;55.30;95908.97;4977723;28;20526;-60
2023/04/21 05:37:19;;;;;;;28.38;16.27;;;;;;;19.70;55.34;95914.88;4971313;28;20090;-57
2023/04/21 05:39:48;;;;;;;31.10;17.58;;;;;;;19.58;57.07;95912.84;4970465;28;20097;-56
2023/04/21 05:42:18;;;;;;;30.13;16.33;;;;;;;19.17;57.88;95915.94;4971045;28;20079;-57
2023/04/21 05:44:46;;;;;;;28.70;16.15;;;;;;;19.82;55.93;95907.78;4971286;28;20082;-55
2023/04/21 05:47:14;;;;;;;32.10;16.88;;;;;;;20.17;54.16;95904.66;4971064;28;20109;-55
2023/04/21 05:49:48;;;;;;;30.23;16.13;;;;;;;20.33;53.74;95902.22;4971059;28;20658;-57
2023/04/21 05:52:17;;;;;;;35.90;18.45;;;;;;;20.41;54.00;95901.16;4970642;28;20081;-57
2023/04/21 05:54:45;;;;;;;33.03;17.95;;;;;;;20.27;55.22;95899.63;4967996;28;20089;-54
2023/04/21 05:57:16;;;;;;;32.58;17.20;;;;;;;20.83;54.03;95901.38;4970223;28;20090;-58
2023/04/21 05:59:45;;;;;;;30.73;17.00;;;;;;;20.49;52.88;95894.69;4967344;28;20091;-54
2023/04/21 06:02:13;;;;;;;32.15;16.85;;;;;;;20.36;53.98;95892.94;4970801;28;20336;-53
2023/04/21 06:04:41;;;;;;;29.40;16.15;;;;;;;20.57;53.97;95894.44;4971281;28;20090;-56
2023/04/21 06:07:12;;;;;;;30.98;16.75;;;;;;;20.05;54.66;95900.00;4970623;28;20090;-55
2023/04/21 06:09:41;;;;;;;31.88;17.02;;;;;;;20.35;54.37;95896.66;4970647;28;20084;-54
2023/04/21 06:12:09;;;;;;;32.22;17.60;;;;;;;20.86;52.08;95890.22;4968001;28;20083;-54
2023/04/21 06:14:39;;;;;;;31.13;16.67;;;;;;;21.08;51.34;95888.72;4970605;28;20086;-56
2023/04/21 06:17:07;;;;;;;30.52;17.17;;;;;;;21.00;50.71;95891.72;4970400;28;20085;-58
2023/04/21 06:19:38;;;;;;;29.50;16.98;;;;;;;21.65;48.95;95893.00;4968204;28;20617;-56
2023/04/21 06:22:07;;;;;;;34.65;17.20;;;;;;;21.05;49.04;95897.19;4969966;28;20089;-52
2023/04/21 06:24:36;;;;;;;29.17;16.70;;;;;;;22.32;46.81;95890.94;4971009;28;20093;-57
2023/04/21 06:27:10;;;;;;;28.98;16.45;;;;;;;23.39;44.33;95879.00;4970684;28;20078;-62
2023/04/21 06:29:41;;;;;;;27.90;16.25;;;;;;;22.93;44.50;95881.59;4966657;28;20090;-62
2023/04/21 06:32:10;;;;;;;27.00;16.40;;;;;;;23.51;43.49;95885.19;4970407;28;20476;-59
2023/04/21 06:34:38;;;;;;;25.30;14.30;;;;;;;22.58;43.57;95889.66;4974901;28;20097;-55
2023/04/21 06:37:06;;;;;;;27.48;16.40;;;;;;;24.07;41.75;95885.38;4970211;28;20624;-60
2023/04/21 06:39:35;;;;;;;28.67;16.70;;;;;;;23.33;43.12;95886.19;4971794;28;20096;-54
2023/04/21 06:42:03;;;;;;;25.58;16.05;;;;;;;24.28;41.07;95883.84;4970233;28;20082;-60
2023/04/21 06:44:31;;;;;;;24.05;14.82;;;;;;;23.56;41.07;95879.88;4968391;28;20089;-60
2023/04/21 06:47:01;;;;;;;27.50;15.63;;;;;;;25.03;38.66;95875.25;4969275;28;20086;-60
2023/04/21 06:49:29;;;;;;;25.07;15.47;;;;;;;25.38;37.92;95868.69;4970572;28;20093;-59
2023/04/21 06:51:58;;;;;;;25.30;15.10;;;;;;;24.86;37.86;95869.09;4970115;28;20501;-58
2023/04/21 06:54:26;;;;;;;25.38;15.68;;;;;;;25.06;38.04;95876.66;4970127;28;20082;-60
2023/04/21 06:56:56;;;;;;;24.73;14.40;;;;;;;24.20;39.21;95878.88;4969696;28;20082;-56
2023/04/21 06:59:24;;;;;;;24.23;14.93;;;;;;;22.62;41.91;95887.31;4969171;28;20097;-57
2023/04/21 07:01:53;;;;;;;21.77;13.95;;;;;;;22.62;42.24;95885.44;4968641;28;20066;-58
2023/04/21 07:04:22;;;;;;;23.52;14.30;;;;;;;22.96;41.22;95881.13;4969213;28;20082;-58
2023/04/21 07:06:51;;;;;;;22.00;13.77;;;;;;;23.53;40.14;95880.34;4969981;28;20086;-58
2023/04/21 07:09:19;;;;;;;22.05;14.23;;;;;;;23.33;40.69;95882.66;4968831;28;20093;-56
2023/04/21 07:11:48;;;;;;;24.08;15.18;;;;;;;23.58;40.59;95879.66;4969908;28;20518;-60
2023/04/21 07:14:16;;;;;;;23.80;15.50;;;;;;;23.49;40.69;95883.78;4969061;28;20468;-62
2023/04/21 07:16:44;;;;;;;27.67;15.23;;;;;;;23.30;41.35;95885.84;4965381;28;20098;-59
2023/04/21 07:19:13;;;;;;;22.95;14.77;;;;;;;22.78;41.88;95886.63;4967658;28;20086;-57
2023/04/21 07:21:43;;;;;;;26.17;15.18;;;;;;;22.27;43.03;95886.25;4968706;28;20082;-59
2023/04/21 07:24:11;;;;;;;26.90;14.03;;;;;;;23.28;41.44;95887.94;4969061;28;20090;-57
2023/04/21 07:26:39;;;;;;;27.17;16.38;;;;;;;22.74;41.72;95894.31;4968711;28;20553;-59
2023/04/21 07:29:07;;;;;;;26.83;15.73;;;;;;;22.39;43.77;95886.25;4966269;28;20082;-58
2023/04/21 07:31:36;;;;;;;25.13;14.95;;;;;;;21.90;44.88;95890.94;4963398;28;20086;-57
2023/04/21 07:34:04;;;;;;;28.38;16.25;;;;;;;22.07;44.59;95887.59;4972563;28;20097;-57
2023/04/21 07:36:33;;;;;;;28.23;16.98;;;;;;;21.87;44.55;95890.59;4962995;28;20075;-55
2023/04/21 07:39:02;;;;;;;27.80;16.63;;;;;;;21.49;46.36;95894.44;4966572;28;20082;-64
2023/04/21 07:41:31;;;;;;;25.27;16.02;;;;;;;20.80;47.24;95893.78;4968980;28;20090;-62
2023/04/21 07:43:59;;;;;;;27.35;15.20;;;;;;;22.03;44.92;95890.75;4969566;28;20081;-60
2023/04/21 07:46:30;;;;;;;28.80;15.82;;;;;;;22.80;43.69;95881.81;4968851;28;20559;-58
2023/04/21 07:48:59;;;;;;;21.38;11.10;;;;;;;21.63;46.18;95898.56;4969283;28;20085;-56
2023/04/21 07:51:44;;;;;;;27.42;15.27;;;;;;;21.86;45.92;95889.78;4968903;28;20109;-55
2023/04/21 07:54:14;;;;;;;23.27;14.23;;;;;;;22.26;45.02;95887.31;4968343;28;20362;-55
2023/04/21 07:56:42;;;;;;;23.83;15.50;;;;;;;21.48;46.60;95893.63;4969810;28;20082;-56
2023/04/21 07:59:10;;;;;;;24.83;15.23;;;;;;;22.01;45.32;95887.47;4969021;28;20082;-55
2023/04/21 08:01:38;;;;;;;25.92;15.13;;;;;;;23.38;42.17;95880.88;4966867;28;20094;-59
2023/04/21 08:04:07;;;;;;;24.48;15.05;;;;;;;24.76;40.10;95871.66;4967995;28;20101;-55
2023/04/21 08:06:36;;;;;;;27.08;15.68;;;;;;;24.52;39.94;95879.13;4968956;28;20086;-60
2023/04/21 08:09:05;;;;;;;25.13;14.40;;;;;;;23.85;41.99;95885.28;4968902;28;20085;-59
2023/04/21 08:11:34;;;;;;;23.55;15.13;;;;;;;24.58;40.83;95878.13;4962171;28;20086;-58
2023/04/21 08:14:03;;;;;;;27.63;16.35;;;;;;;22.71;43.20;95891.28;4968832;28;20050;-59
2023/04/21 08:16:31;;;;;;;22.38;14.25;;;;;;;23.67;42.33;95899.72;4968588;28;20090;-57
2023/04/21 08:19:00;;;;;;;26.40;15.88;;;;;;;24.73;40.39;95886.44;4968673;28;20086;-57
2023/04/21 08:21:28;;;;;;;24.38;15.45;;;;;;;24.09;42.55;95891.38;4965018;28;20082;-56
2023/04/21 08:23:58;;;;;;;29.52;15.35;;;;;;;24.28;41.63;95890.03;4969398;28;20085;-58
2023/04/21 08:26:29;;;;;;;27.00;15.02;;;;;;;23.65;41.49;95889.22;4969017;28;20112;-56
2023/04/21 08:28:58;;;;;;;26.33;15.27;;;;;;;24.97;40.21;95883.53;4967725;28;20090;-59
2023/04/21 08:31:29;;;;;;;24.77;14.90;;;;;;;24.66;39.52;95893.06;4968681;28;20102;-60
2023/04/21 08:34:00;;;;;;;27.40;16.17;;;;;;;25.17;39.77;95883.00;4969987;28;20077;-59
2023/04/21 08:36:30;;;;;;;23.70;14.52;;;;;;;25.18;39.09;95885.44;4969403;28;20087;-61
2023/04/21 08:38:59;;;;;;;24.08;16.33;;;;;;;24.87;39.51;95882.31;4972691;28;20121;-58
2023/04/21 08:41:28;;;;;;;25.27;16.25;;;;;;;26.17;38.10;95873.53;4972511;28;20082;-53
2023/04/21 08:43:57;;;;;;;23.90;15.80;;;;;;;25.85;37.92;95881.63;4972501;28;20507;-60
2023/04/21 08:46:27;;;;;;;27.77;17.33;;;;;;;25.48;38.59;95887.69;4973483;28;20078;-58
2023/04/21 08:48:57;;;;;;;19.88;12.85;;;;;;;24.93;39.49;95883.22;4972255;28;20497;-59
2023/04/21 08:51:29;;;;;;;26.55;15.93;;;;;;;25.75;38.81;95885.03;4972080;28;20086;-59
2023/04/21 08:53:57;;;;;;;27.15;16.77;;;;;;;25.84;37.83;95881.88;4972984;28;20468;-60
2023/04/21 08:56:25;;;;;;;21.48;13.77;;;;;;;24.56;40.29;95877.56;4970777;28;20078;-57
2023/04/21 08:58:54;;;;;;;24.98;15.93;;;;;;;24.08;42.08;95882.44;4973332;28;20536;-60
2023/04/21 09:01:24;;;;;;;27.08;14.75;;;;;;;23.97;42.18;95883.34;4972488;28;20089;-54
2023/04/21 09:03:52;;;;;;;24.70;15.93;;;;;;;25.54;39.25;95881.28;4971150;28;20071;-58
2023/04/21 09:06:21;;;;;;;26.13;16.45;;;;;;;24.11;41.78;95892.72;4971847;28;20092;-59
2023/04/21 09:08:54;;;;;;;25.20;15.35;;;;;;;25.56;39.57;95878.31;4971870;28;20097;-58
2023/04/21 09:11:23;;;;;;;21.00;12.95;;;;;;;25.19;39.66;95881.69;4971546;28;20109;-56
2023/04/21 09:13:51;;;;;;;25.45;14.48;;;;;;;25.32;39.71;95884.00;4972117;28;20078;-59
2023/04/21 09:16:21;;;;;;;20.35;13.95;;;;;;;23.27;44.11;95889.81;4970679;28;20086;-52
2023/04/21 09:18:52;;;;;;;24.65;15.27;;;;;;;24.29;42.88;95883.59;4971164;28;20082;-56
2023/04/21 09:21:22;;;;;;;26.10;13.68;;;;;;;24.13;42.67;95876.34;4969880;28;20077;-57
2023/04/21 09:23:51;;;;;;;25.17;14.60;;;;;;;23.30;44.13;95885.84;4971715;28;20081;-57
2023/04/21 09:26:21;;;;;;;24.23;15.30;;;;;;;23.12;45.45;95884.94;4971997;28;20078;-57
2023/04/21 09:28:51;;;;;;;21.55;12.93;;;;;;;24.01;44.21;95871.00;4970308;28;20078;-56
2023/04/21 09:31:23;;;;;;;24.60;14.05;;;;;;;24.63;43.23;95867.41;4971904;28;20078;-59
2023/04/21 09:33:54;;;;;;;23.40;13.05;;;;;;;24.42;42.96;95873.56;4973689;28;20093;-59
2023/04/21 09:36:28;;;;;;;22.02;12.35;;;;;;;24.16;43.78;95870.47;4969181;28;20085;-61
2023/04/21 09:38:59;;;;;;;15.95;8.73;;;;;;;23.66;44.09;95865.78;4971846;28;20074;-57
2023/04/21 09:41:30;;;;;;;18.23;11.60;;;;;;;23.88;44.75;95865.94;4971944;28;20077;-55
2023/04/21 09:44:00;;;;;;;18.52;11.95;;;;;;;23.57;44.60;95862.69;4971617;28;20476;-59
2023/04/21 09:46:29;;;;;;;21.93;13.30;;;;;;;23.26;45.62;95865.81;4971115;28;20546;-59
2023/04/21 09:49:00;;;;;;;20.27;13.68;;;;;;;23.84;46.06;95862.09;4966988;28;20501;-57
2023/04/21 09:51:30;;;;;;;20.80;12.15;;;;;;;24.44;45.08;95855.28;4971323;28;20082;-56
2023/04/21 09:54:20;;;;;;;21.23;13.85;;;;;;;24.45;44.73;95863.13;4966787;28;20077;-57
2023/04/21 09:56:53;;;;;;;20.80;12.35;;;;;;;24.61;45.58;95858.78;4968249;28;20081;-55
2023/04/21 09:59:27;;;;;;;19.77;12.98;;;;;;;24.11;45.11;95862.28;4971006;28;20085;-55
2023/04/21 10:01:55;;;;;;;17.38;11.68;;;;;;;23.64;44.79;95857.13;4971167;28;20082;-55
2023/04/21 10:04:25;;;;;;;20.92;11.95;;;;;;;23.98;44.85;95862.59;4970663;28;20081;-58
2023/04/21 10:06:55;;;;;;;22.35;12.52;;;;;;;24.57;44.23;95858.47;4970873;28;20089;-61
2023/04/21 10:09:25;;;;;;;21.60;11.88;;;;;;;25.16;43.14;95857.91;4970486;28;20102;-60
2023/04/21 10:11:54;;;;;;;17.05;10.10;;;;;;;24.60;44.06;95851.72;4967836;28;20121;-57
2023/04/21 10:14:22;;;;;;;16.90;11.25;;;;;;;24.08;43.99;95857.38;4971026;28;20635;-57
2023/04/21 10:16:56;;;;;;;18.70;11.15;;;;;;;25.37;41.90;95844.66;4970744;28;20093;-59
2023/04/21 10:19:27;;;;;;;15.38;9.30;;;;;;;24.17;43.84;95842.44;4970183;28;20082;-62
2023/04/21 10:21:55;;;;;;;;;;;;;;;24.96;43.39;95844.94;4974314;28;20086;-62
2023/04/21 10:24:23;;;;;;;18.63;11.25;;;;;;;24.95;42.63;95842.50;4970753;28;19972;-60
2023/04/21 10:26:51;;;;;;;16.02;9.82;;;;;;;25.85;41.11;95838.41;4969256;28;20557;-57
2023/04/21 10:29:28;;;;;;;;;;;;;;;25.39;42.21;95840.63;4968448;28;20078;-54
2023/04/21 10:32:07;;;;;;;16.88;11.23;;;;;;;24.52;43.89;95839.50;4967586;28;19954;-57
2023/04/21 10:34:38;;;;;;;18.48;11.40;;;;;;;25.24;44.03;95840.47;4972799;28;20086;-59
2023/04/21 10:37:19;;;;;;;18.13;12.00;;;;;;;24.71;44.01;95842.75;4970775;28;20085;-57
2023/04/21 10:39:55;;;;;;;20.27;12.65;;;;;;;25.31;43.18;95841.88;4969791;28;20086;-57
2023/04/21 10:42:28;;;;;;;20.98;15.07;;;;;;;24.18;45.12;95838.69;4969739;28;20086;-61
2023/04/21 10:45:08;;;;;;;18.10;11.48;;;;;;;25.48;43.64;95843.69;4969217;28;20070;-59
2023/04/21 10:47:39;;;;;;;;;;;;;;;25.40;43.60;95828.78;4969626;28;20090;-59
2023/04/21 10:50:15;;;;;;;15.30;10.65;;;;;;;25.34;42.45;95825.19;4952291;28;19960;-57
2023/04/21 10:52:45;;;;;;;17.35;11.70;;;;;;;24.33;45.01;95830.84;4947570;28;20085;-59
2023/04/21 10:55:15;;;;;;;15.77;9.63;;;;;;;25.22;44.22;95827.19;4965172;28;20078;-57
2023/04/21 10:57:45;;;;;;;20.73;12.50;;;;;;;24.93;44.14;95823.06;4970059;28;20534;-58
2023/04/21 11:00:19;;;;;;;15.95;9.45;;;;;;;24.87;44.65;95822.97;4967276;28;20486;-58
2023/04/21 11:02:55;;;;;;;17.23;12.25;;;;;;;24.58;44.27;95827.72;4972265;28;20086;-56
2023/04/21 11:05:37;;;;;;;18.02;12.18;;;;;;;25.82;43.13;95811.09;4969625;28;20085;-59
2023/04/21 11:08:11;;;;;;;13.82;8.80;;;;;;;26.19;41.66;95814.66;4968700;28;20085;-57
2023/04/21 11:10:53;;;;;;;10.93;7.05;;;;;;;25.15;41.26;95817.66;4969144;28;20090;-60
2023/04/21 11:13:23;;;;;;;12.80;6.82;;;;;;;25.49;40.25;95821.00;4965648;28;20086;-56
2023/04/21 11:16:06;;;;;;;14.15;8.98;;;;;;;26.85;39.51;95806.16;4969421;28;20078;-60
2023/04/21 11:18:39;;;;;;;10.60;7.25;;;;;;;26.33;39.94;95809.63;4966694;28;20086;-54
2023/04/21 11:21:20;;;;;;;11.63;8.43;;;;;;;25.39;40.13;95813.63;4969991;28;20082;-61
2023/04/21 11:23:50;;;;;;;22.00;8.57;;;;;;;25.34;39.51;95816.28;4969319;28;20109;-57
2023/04/21 11:26:19;;;;;;;14.35;8.25;;;;;;;25.39;40.64;95815.50;4969561;28;20089;-61
2023/04/21 11:28:49;;;;;;;11.90;7.55;;;;;;;25.40;40.21;95807.19;4969473;28;20108;-62
2023/04/21 11:31:17;;;;;;;13.33;8.37;;;;;;;25.61;40.12;95800.09;4964875;28;20083;-57